Time;durP1;ratioP1;P1;durP2;ratioP2;P2;SDS_P1;SDS_P2;PMS_P1;PMS_P2;Temp;Humidity;BMP_temperature;BMP_pressure;BME280_temperature;BME280_humidity;BME280_pressure;Samples;Min_cycle;Max_cycle;Signal;HPM_P1;HPM_P2
2024/02/16 00:01:33;;;;;;;30.55;22.92;;;11.50;75.10;;;;;;5053054;28;20505;-78
2024/02/16 00:03:58;;;;;;;27.88;20.95;;;11.50;75.20;;;;;;5052942;28;20032;-77
2024/02/16 00:06:24;;;;;;;32.45;22.20;;;11.50;75.30;;;;;;5053046;28;20029;-79
2024/02/16 00:08:50;;;;;;;34.25;22.00;;;11.50;75.20;;;;;;5052292;28;20086;-77
2024/02/16 00:11:15;;;;;;;29.98;21.52;;;11.50;75.30;;;;;;5034294;28;20091;-78
2024/02/16 00:13:41;;;;;;;32.92;21.95;;;11.50;75.30;;;;;;5052271;28;20044;-78
2024/02/16 00:16:07;;;;;;;27.58;20.48;;;11.40;75.70;;;;;;5034659;28;20032;-78
2024/02/16 00:18:33;;;;;;;34.70;22.20;;;11.30;75.60;;;;;;5052409;28;20037;-77
2024/02/16 00:20:59;;;;;;;36.78;23.00;;;11.40;76.00;;;;;;5034828;28;20043;-77
2024/02/16 00:23:25;;;;;;;30.98;21.92;;;11.30;76.20;;;;;;5052374;28;20104;-77
2024/02/16 00:25:51;;;;;;;34.72;21.13;;;11.30;76.70;;;;;;5052487;28;20166;-77
2024/02/16 00:28:17;;;;;;;29.50;21.08;;;11.30;76.90;;;;;;5052114;28;20552;-76
2024/02/16 00:30:42;;;;;;;31.90;21.67;;;11.30;77.60;;;;;;5052416;28;20057;-78
2024/02/16 00:33:08;;;;;;;33.67;22.48;;;11.30;77.50;;;;;;5052789;28;20033;-78
2024/02/16 00:35:34;;;;;;;31.60;22.98;;;11.20;77.20;;;;;;5052330;28;20029;-78
2024/02/16 00:38:00;;;;;;;39.13;22.77;;;11.20;77.40;;;;;;5052278;28;20092;-77
2024/02/16 00:40:28;;;;;;;31.65;21.88;;;11.10;77.40;;;;;;5034139;28;20033;-77
2024/02/16 00:42:55;;;;;;;37.03;22.05;;;11.10;78.40;;;;;;5053176;28;20033;-78
2024/02/16 00:45:20;;;;;;;33.53;21.90;;;11.10;78.00;;;;;;5056475;28;20029;-77
2024/02/16 00:47:46;;;;;;;31.20;22.13;;;11.10;78.10;;;;;;5056293;28;20052;-77
2024/02/16 00:50:12;;;;;;;30.48;20.73;;;11.10;78.10;;;;;;5037762;28;20467;-78
2024/02/16 00:52:39;;;;;;;35.80;23.02;;;11.20;78.10;;;;;;5038150;28;20041;-79
2024/02/16 00:55:05;;;;;;;31.63;21.77;;;11.20;78.10;;;;;;5056225;28;20044;-80
2024/02/16 00:57:31;;;;;;;31.38;21.95;;;11.10;78.60;;;;;;5056232;28;20044;-78
2024/02/16 00:59:57;;;;;;;27.88;20.88;;;11.10;78.50;;;;;;5056018;28;20048;-78
2024/02/16 01:02:22;;;;;;;31.60;21.52;;;11.10;78.30;;;;;;5056009;28;20029;-77
2024/02/16 01:04:50;;;;;;;31.17;20.70;;;11.00;78.50;;;;;;5056172;28;20087;-78
2024/02/16 01:07:16;;;;;;;27.95;21.55;;;11.00;78.50;;;;;;5055854;28;20182;-78
2024/02/16 01:09:41;;;;;;;29.73;20.73;;;11.10;78.70;;;;;;5055923;28;20037;-79
2024/02/16 01:12:07;;;;;;;27.20;20.77;;;11.00;78.50;;;;;;5055914;28;20037;-77
2024/02/16 01:14:33;;;;;;;28.85;21.63;;;11.00;78.40;;;;;;5055726;28;20447;-78
2024/02/16 01:16:59;;;;;;;30.42;21.70;;;10.90;78.50;;;;;;5055748;28;20060;-77
2024/02/16 01:19:25;;;;;;;33.55;21.00;;;10.90;78.60;;;;;;5055599;28;20071;-78
2024/02/16 01:21:53;;;;;;;30.15;20.10;;;10.90;78.60;;;;;;5055536;28;20479;-77
2024/02/16 01:24:20;;;;;;;31.52;20.27;;;11.00;79.10;;;;;;5055660;28;20434;-78
2024/02/16 01:26:46;;;;;;;29.15;20.92;;;11.00;78.60;;;;;;5037820;28;20401;-76
2024/02/16 01:29:12;;;;;;;30.45;21.10;;;11.00;78.10;;;;;;5055897;28;20094;-78
2024/02/16 01:31:38;;;;;;;27.73;20.60;;;11.00;78.30;;;;;;5037502;28;20036;-78
2024/02/16 01:34:03;;;;;;;28.02;19.48;;;10.90;78.10;;;;;;5055676;28;20064;-77
2024/02/16 01:36:29;;;;;;;29.85;20.95;;;10.80;77.70;;;;;;5055435;28;20079;-77
2024/02/16 01:38:55;;;;;;;27.05;19.50;;;10.90;78.00;;;;;;5055321;28;20040;-78
2024/02/16 01:41:20;;;;;;;27.17;19.83;;;10.90;77.60;;;;;;5055635;28;20025;-79
2024/02/16 01:43:46;;;;;;;24.98;19.25;;;10.90;77.50;;;;;;5055832;28;20057;-77
2024/02/16 01:46:12;;;;;;;24.73;19.38;;;10.90;77.50;;;;;;5055131;28;20052;-79
2024/02/16 01:48:40;;;;;;;26.20;18.65;;;10.80;77.10;;;;;;5054933;28;20076;-78
2024/02/16 01:51:08;;;;;;;27.60;18.88;;;10.80;77.90;;;;;;5054949;28;20216;-76
2024/02/16 01:53:36;;;;;;;25.55;18.40;;;10.80;76.80;;;;;;5055072;28;20153;-78
2024/02/16 01:56:02;;;;;;;26.75;19.10;;;10.70;77.00;;;;;;5053818;28;20045;-77
2024/02/16 01:58:28;;;;;;;26.20;19.42;;;10.80;77.40;;;;;;5054909;28;20505;-76
2024/02/16 02:00:54;;;;;;;29.05;19.80;;;10.80;77.00;;;;;;5054766;28;20490;-77
2024/02/16 02:03:20;;;;;;;25.58;18.48;;;10.80;77.10;;;;;;5054598;28;20033;-78
2024/02/16 02:05:46;;;;;;;25.17;18.60;;;10.80;77.10;;;;;;5055059;28;20040;-78
2024/02/16 02:08:13;;;;;;;23.98;18.30;;;10.70;76.80;;;;;;5054847;28;20041;-79
2024/02/16 02:10:39;;;;;;;27.85;17.85;;;10.70;76.90;;;;;;5054842;28;20025;-77
2024/02/16 02:13:05;;;;;;;26.15;19.10;;;10.80;77.00;;;;;;5054617;28;20029;-77
2024/02/16 02:15:30;;;;;;;25.35;18.60;;;10.70;76.80;;;;;;5054724;28;20036;-78
2024/02/16 02:17:59;;;;;;;24.95;18.02;;;10.70;77.00;;;;;;5036589;28;20409;-79
2024/02/16 02:20:25;;;;;;;25.45;18.42;;;10.70;77.00;;;;;;5054927;28;20048;-77
2024/02/16 02:22:50;;;;;;;30.95;19.75;;;10.60;77.20;;;;;;5054883;28;20033;-78
2024/02/16 02:25:16;;;;;;;24.58;18.35;;;10.60;77.20;;;;;;5036784;28;20036;-78
2024/02/16 02:27:42;;;;;;;24.85;18.63;;;10.50;77.10;;;;;;5054325;28;20130;-78
2024/02/16 02:30:09;;;;;;;23.48;17.88;;;10.50;77.30;;;;;;5055668;28;20055;-77
2024/02/16 02:32:34;;;;;;;25.13;18.35;;;10.40;77.60;;;;;;5037226;28;20032;-79
2024/02/16 02:35:02;;;;;;;25.17;18.13;;;10.40;77.70;;;;;;5054448;28;20025;-77
2024/02/16 02:37:28;;;;;;;23.25;18.25;;;10.40;77.20;;;;;;5054221;28;20037;-78
2024/02/16 02:39:53;;;;;;;25.25;18.30;;;10.40;77.60;;;;;;5054782;28;20029;-78
2024/02/16 02:42:19;;;;;;;25.75;18.15;;;10.30;77.20;;;;;;5053940;28;20037;-77
2024/02/16 02:44:49;;;;;;;26.27;18.38;;;10.20;77.70;;;;;;5036252;28;20026;-77
2024/02/16 02:47:16;;;;;;;24.40;17.48;;;10.20;77.70;;;;;;5036579;28;20087;-78
2024/02/16 02:49:43;;;;;;;25.48;18.98;;;10.00;77.40;;;;;;5037413;28;20040;-78
2024/02/16 02:52:09;;;;;;;23.42;18.48;;;10.00;77.90;;;;;;5036843;28;20223;-77
2024/02/16 02:54:34;;;;;;;26.13;18.13;;;9.90;79.10;;;;;;5054829;28;20112;-77
2024/02/16 02:57:02;;;;;;;23.45;17.48;;;9.90;78.90;;;;;;5035912;28;20036;-78
2024/02/16 02:59:27;;;;;;;23.50;17.77;;;9.80;78.80;;;;;;5053748;28;20183;-79
2024/02/16 03:01:53;;;;;;;28.20;18.52;;;9.80;79.20;;;;;;5054185;28;20518;-79
2024/02/16 03:04:19;;;;;;;25.45;18.85;;;9.80;79.80;;;;;;5053968;28;20466;-77
2024/02/16 03:06:46;;;;;;;23.75;18.45;;;9.70;79.80;;;;;;5053726;28;20057;-79
2024/02/16 03:09:12;;;;;;;25.10;18.30;;;9.70;79.40;;;;;;5053733;28;20045;-78
2024/02/16 03:11:38;;;;;;;26.00;18.77;;;9.60;79.40;;;;;;5053797;28;20041;-77
2024/02/16 03:14:05;;;;;;;25.73;19.15;;;9.60;79.50;;;;;;5053676;28;20457;-77
2024/02/16 03:16:31;;;;;;;25.90;18.50;;;9.70;79.60;;;;;;5053633;28;20063;-77
2024/02/16 03:18:57;;;;;;;23.95;17.65;;;9.70;79.20;;;;;;5053770;28;20040;-78
2024/02/16 03:21:23;;;;;;;22.90;16.73;;;9.70;79.30;;;;;;5035929;28;20132;-79
2024/02/16 03:23:49;;;;;;;25.20;16.45;;;9.70;79.10;;;;;;5053199;28;20390;-79
2024/02/16 03:26:18;;;;;;;19.45;15.80;;;9.70;79.40;;;;;;5035418;28;20505;-78
2024/02/16 03:28:48;;;;;;;25.20;15.65;;;9.60;79.00;;;;;;5053226;28;20085;-77
2024/02/16 03:31:21;;;;;;;21.23;14.38;;;9.70;78.90;;;;;;5053212;28;20394;-78
2024/02/16 03:33:48;;;;;;;21.83;14.68;;;9.60;78.20;;;;;;5053021;28;20025;-78
2024/02/16 03:36:15;;;;;;;21.45;13.75;;;9.60;77.80;;;;;;5052926;28;20120;-77
2024/02/16 03:38:42;;;;;;;20.48;12.80;;;9.60;77.50;;;;;;5053066;28;20491;-78
2024/02/16 03:41:12;;;;;;;19.35;13.48;;;9.70;77.60;;;;;;5053085;28;20162;-79
2024/02/16 03:43:38;;;;;;;18.83;13.25;;;9.60;76.30;;;;;;5052938;28;20033;-77
2024/02/16 03:46:03;;;;;;;17.10;13.05;;;9.50;76.70;;;;;;5053189;28;20060;-79
2024/02/16 03:48:30;;;;;;;19.38;12.75;;;9.50;76.50;;;;;;5053004;28;20040;-78
2024/02/16 03:50:55;;;;;;;19.48;12.38;;;9.50;76.80;;;;;;5052708;28;20033;-78
2024/02/16 03:53:21;;;;;;;17.80;12.15;;;9.50;76.30;;;;;;5052743;28;20482;-77
2024/02/16 03:55:47;;;;;;;20.15;13.07;;;9.50;76.10;;;;;;5053034;28;20025;-78
2024/02/16 03:58:12;;;;;;;18.67;12.52;;;9.50;75.80;;;;;;5034515;28;20102;-78
2024/02/16 04:00:38;;;;;;;17.08;11.82;;;9.50;76.10;;;;;;5052476;28;20037;-78
2024/02/16 04:03:04;;;;;;;17.23;11.77;;;9.60;75.80;;;;;;5034672;28;20120;-78
2024/02/16 04:05:32;;;;;;;16.25;12.00;;;9.60;75.70;;;;;;5034823;28;20029;-79
2024/02/16 04:08:01;;;;;;;20.75;12.10;;;9.60;75.70;;;;;;5052716;28;20056;-77
2024/02/16 04:10:30;;;;;;;19.00;12.60;;;9.60;75.40;;;;;;5035257;28;20160;-77
2024/02/16 04:12:56;;;;;;;17.30;12.07;;;9.60;75.40;;;;;;5034467;28;20041;-78
2024/02/16 04:15:22;;;;;;;17.70;12.65;;;9.60;75.20;;;;;;5053250;28;20044;-79
2024/02/16 04:17:49;;;;;;;15.85;12.00;;;9.60;75.20;;;;;;5034303;28;20181;-78
2024/02/16 04:20:16;;;;;;;16.90;12.20;;;9.60;75.30;;;;;;5052303;28;20041;-77
2024/02/16 04:22:42;;;;;;;17.90;12.05;;;9.70;75.20;;;;;;5052505;28;20029;-78
2024/02/16 04:25:08;;;;;;;16.02;12.07;;;9.70;75.00;;;;;;5052239;28;20079;-77
2024/02/16 04:27:35;;;;;;;18.20;12.77;;;9.70;74.90;;;;;;5052336;28;20128;-76
2024/02/16 04:30:01;;;;;;;17.02;12.45;;;9.70;74.50;;;;;;5054808;28;20473;-78
2024/02/16 04:32:27;;;;;;;19.00;11.93;;;9.60;74.50;;;;;;5036077;28;20044;-77
2024/02/16 04:34:52;;;;;;;19.30;13.40;;;9.70;74.50;;;;;;5054957;28;20474;-76
2024/02/16 04:37:19;;;;;;;17.33;12.30;;;9.60;74.40;;;;;;5037067;28;20096;-76
2024/02/16 04:39:45;;;;;;;14.45;11.40;;;9.60;74.40;;;;;;5053761;28;20033;-76
2024/02/16 04:42:11;;;;;;;19.73;12.95;;;9.60;74.50;;;;;;5052412;28;20048;-77
2024/02/16 04:44:41;;;;;;;16.48;11.65;;;9.60;74.40;;;;;;5052347;28;20044;-78
2024/02/16 04:47:06;;;;;;;17.58;12.38;;;9.70;74.20;;;;;;5052187;28;20480;-77
2024/02/16 04:49:32;;;;;;;17.17;12.32;;;9.70;74.30;;;;;;5051954;28;20136;-78
2024/02/16 04:51:58;;;;;;;17.77;12.35;;;9.60;74.10;;;;;;5052127;28;20094;-78
2024/02/16 04:54:24;;;;;;;17.52;12.40;;;9.60;74.00;;;;;;5052477;28;20048;-77
2024/02/16 04:56:50;;;;;;;19.52;12.57;;;9.60;74.00;;;;;;5052512;28;20052;-78
2024/02/16 22:59:57;;;;;;;49.25;33.63;;;13.20;79.80;;;;;;5053312;23;20182;-75
2024/02/16 23:02:23;;;;;;;47.92;34.83;;;13.20;79.10;;;;;;5054698;28;20068;-76
2024/02/16 23:04:49;;;;;;;51.13;35.00;;;13.20;79.10;;;;;;5054897;28;20033;-77
2024/02/16 23:07:15;;;;;;;51.65;34.97;;;13.20;79.10;;;;;;5054807;28;20536;-75
2024/02/16 23:09:42;;;;;;;46.75;33.38;;;13.20;79.10;;;;;;5054045;28;20041;-76
2024/02/16 23:12:09;;;;;;;43.22;30.83;;;13.20;79.10;;;;;;5036604;28;20033;-76
2024/02/16 23:14:36;;;;;;;52.88;33.05;;;13.10;78.50;;;;;;5054303;28;20099;-77
2024/02/16 23:17:01;;;;;;;46.78;31.80;;;13.00;78.30;;;;;;5054142;28;20064;-76
2024/02/16 23:19:27;;;;;;;46.10;31.65;;;13.00;78.40;;;;;;5033306;28;20064;-78
2024/02/16 23:21:53;;;;;;;43.03;30.95;;;13.00;78.10;;;;;;5034065;28;20030;-75
2024/02/16 23:24:19;;;;;;;42.58;30.50;;;12.90;78.20;;;;;;5033875;28;20416;-77
2024/02/16 23:26:46;;;;;;;43.22;30.63;;;12.90;78.10;;;;;;5034111;28;20038;-76
2024/02/16 23:29:11;;;;;;;44.55;31.38;;;12.90;78.20;;;;;;5033972;28;20521;-76
2024/02/16 23:31:37;;;;;;;42.30;30.73;;;12.90;78.10;;;;;;5034162;28;20023;-77
2024/02/16 23:34:03;;;;;;;45.47;30.92;;;12.90;78.10;;;;;;5034464;28;20037;-76
2024/02/16 23:36:29;;;;;;;45.95;31.55;;;12.80;77.80;;;;;;5033552;28;20109;-76
2024/02/16 23:38:55;;;;;;;47.15;31.27;;;12.80;77.90;;;;;;5033234;28;20506;-76
2024/02/16 23:41:24;;;;;;;48.40;31.95;;;12.80;77.70;;;;;;5033687;28;20172;-77
2024/02/16 23:43:51;;;;;;;48.13;31.60;;;12.80;77.70;;;;;;5034259;28;20033;-75
2024/02/16 23:46:16;;;;;;;46.60;30.88;;;12.70;77.60;;;;;;5034002;28;20153;-77
2024/02/16 23:48:43;;;;;;;44.85;32.17;;;12.70;77.40;;;;;;5033242;28;20069;-77
2024/02/16 23:51:09;;;;;;;48.28;33.55;;;12.70;77.40;;;;;;5034359;28;20030;-77
2024/02/16 23:53:35;;;;;;;43.67;31.52;;;12.60;77.40;;;;;;5033642;28;20479;-77
2024/02/16 23:56:00;;;;;;;44.38;32.05;;;12.60;77.30;;;;;;5033592;28;20079;-75
2024/02/16 23:58:27;;;;;;;45.80;31.88;;;12.60;77.30;;;;;;5033166;28;20032;-77
